Time;durP1;ratioP1;P1;durP2;ratioP2;P2;SDS_P1;SDS_P2;PMS_P1;PMS_P2;Temp;Humidity;BMP_temperature;BMP_pressure;BME280_temperature;BME280_humidity;BME280_pressure;Samples;Min_cycle;Max_cycle;Signal;HPM_P1;HPM_P2
2022/08/31 00:05:04;;;;;;;11.35;10.13;;;;;;;;;;6216372;23;20451;-75
2022/08/31 00:07:33;;;;;;;11.65;9.18;;;;;;;;;;6216263;23;20004;-76
2022/08/31 00:10:00;;;;;;;11.50;9.60;;;;;;;;;;6216322;23;19996;-75
2022/08/31 00:12:26;;;;;;;10.45;9.30;;;;;;;;;;6216327;23;20001;-75
2022/08/31 00:14:52;;;;;;;14.45;12.70;;;;;;;;;;6216046;23;20409;-75
2022/08/31 00:17:18;;;;;;;11.20;9.98;;;;;;;;;;6216201;23;20334;-75
2022/08/31 00:19:44;;;;;;;11.27;10.05;;;;;;;;;;6215806;23;20087;-75
2022/08/31 00:22:10;;;;;;;10.25;9.10;;;;;;;;;;6216123;23;20434;-75
2022/08/31 00:24:37;;;;;;;10.57;9.20;;;;;;;;;;6216395;23;20325;-74
2022/08/31 00:27:03;;;;;;;18.13;15.07;;;;;;;;;;6215959;23;20005;-75
2022/08/31 00:29:29;;;;;;;11.45;10.25;;;;;;;;;;6216209;23;20009;-75
2022/08/31 00:31:55;;;;;;;12.68;10.10;;;;;;;;;;6216346;23;20005;-75
2022/08/31 00:34:21;;;;;;;12.07;9.57;;;;;;;;;;6216170;23;19997;-77
2022/08/31 00:36:48;;;;;;;10.95;9.75;;;;;;;;;;6216281;23;20028;-77
2022/08/31 00:39:14;;;;;;;10.13;9.18;;;;;;;;;;6189650;23;20012;-77
2022/08/31 00:41:40;;;;;;;10.75;9.65;;;;;;;;;;6216255;23;20008;-77
2022/08/31 00:44:08;;;;;;;10.13;9.13;;;;;;;;;;6216232;23;20031;-77
2022/08/31 00:46:37;;;;;;;11.00;9.55;;;;;;;;;;6216011;23;20008;-77
2022/08/31 00:49:05;;;;;;;10.93;9.25;;;;;;;;;;6216051;23;20050;-77
2022/08/31 00:51:33;;;;;;;10.48;9.48;;;;;;;;;;6216103;23;20324;-77
2022/08/31 00:53:59;;;;;;;9.73;8.73;;;;;;;;;;6216177;23;20001;-77
2022/08/31 00:56:26;;;;;;;10.93;9.85;;;;;;;;;;6216023;23;20336;-77
2022/08/31 00:58:52;;;;;;;10.07;9.07;;;;;;;;;;6216157;23;20001;-77
2022/08/31 01:01:19;;;;;;;10.50;9.45;;;;;;;;;;6215830;23;20008;-77
2022/08/31 01:03:48;;;;;;;12.70;10.25;;;;;;;;;;6216015;23;20043;-77
2022/08/31 01:06:16;;;;;;;10.40;9.05;;;;;;;;;;6215670;23;20467;-77
2022/08/31 01:08:43;;;;;;;12.05;8.32;;;;;;;;;;6215836;23;20072;-77
2022/08/31 01:11:09;;;;;;;10.40;9.40;;;;;;;;;;6215907;23;20001;-77
2022/08/31 01:13:36;;;;;;;12.35;9.35;;;;;;;;;;6216422;23;20009;-77
2022/08/31 01:16:06;;;;;;;11.85;10.23;;;;;;;;;;6215496;23;20039;-77
2022/08/31 01:18:33;;;;;;;11.77;9.77;;;;;;;;;;6215930;23;20020;-77
2022/08/31 01:21:05;;;;;;;11.50;10.23;;;;;;;;;;6215982;23;20007;-77
2022/08/31 01:23:33;;;;;;;11.30;9.88;;;;;;;;;;6215808;23;20040;-77
2022/08/31 01:26:00;;;;;;;12.82;10.98;;;;;;;;;;6215751;23;20037;-77
2022/08/31 01:28:26;;;;;;;11.27;10.20;;;;;;;;;;6215758;23;20365;-77
2022/08/31 01:31:06;;;;;;;12.25;10.88;;;;;;;;;;6215777;23;20008;-77
2022/08/31 01:33:34;;;;;;;11.88;10.13;;;;;;;;;;6188976;23;20024;-77
2022/08/31 01:36:00;;;;;;;11.02;9.73;;;;;;;;;;6214975;23;20323;-78
2022/08/31 01:38:27;;;;;;;11.75;9.27;;;;;;;;;;6188902;23;20313;-77
2022/08/31 01:40:56;;;;;;;10.85;9.70;;;;;;;;;;6215916;23;20000;-77
2022/08/31 01:43:22;;;;;;;11.77;10.57;;;;;;;;;;6215551;23;20008;-77
2022/08/31 01:45:49;;;;;;;13.63;10.23;;;;;;;;;;6215868;23;20078;-77
2022/08/31 01:48:16;;;;;;;11.27;9.75;;;;;;;;;;6215612;23;20008;-77
2022/08/31 01:50:42;;;;;;;11.77;10.55;;;;;;;;;;6215857;23;20000;-77
2022/08/31 01:53:08;;;;;;;11.88;10.65;;;;;;;;;;6216716;23;20008;-77
2022/08/31 01:55:35;;;;;;;15.27;11.27;;;;;;;;;;6217852;23;20380;-78
2022/08/31 01:58:01;;;;;;;13.07;11.70;;;;;;;;;;6217464;23;20001;-77
2022/08/31 02:00:28;;;;;;;13.60;12.20;;;;;;;;;;6217897;23;20063;-78
2022/08/31 02:02:56;;;;;;;13.25;12.05;;;;;;;;;;6217703;23;20013;-78
2022/08/31 02:05:22;;;;;;;18.67;16.88;;;;;;;;;;6217687;23;20420;-78
2022/08/31 02:07:48;;;;;;;15.07;13.48;;;;;;;;;;6217653;23;20000;-78
2022/08/31 02:10:14;;;;;;;17.70;16.00;;;;;;;;;;6217426;23;20074;-78
2022/08/31 02:12:40;;;;;;;15.07;13.57;;;;;;;;;;6217525;23;20083;-77
2022/08/31 02:15:06;;;;;;;16.70;14.25;;;;;;;;;;6217587;23;20461;-77
2022/08/31 02:17:32;;;;;;;15.48;13.88;;;;;;;;;;6217355;23;20005;-77
2022/08/31 02:19:58;;;;;;;16.05;14.45;;;;;;;;;;6217670;23;20005;-77
2022/08/31 02:22:25;;;;;;;15.23;13.77;;;;;;;;;;6217470;23;20324;-78
2022/08/31 02:24:51;;;;;;;14.77;13.50;;;;;;;;;;6217509;23;20119;-77
2022/08/31 02:27:17;;;;;;;16.10;14.15;;;;;;;;;;6217128;23;20421;-77
2022/08/31 02:29:43;;;;;;;15.23;13.73;;;;;;;;;;6217337;23;20001;-77
2022/08/31 02:32:10;;;;;;;15.43;13.82;;;;;;;;;;6217460;23;20007;-77
2022/08/31 02:34:36;;;;;;;18.33;16.55;;;;;;;;;;6217754;23;19997;-77
2022/08/31 02:37:02;;;;;;;17.75;16.05;;;;;;;;;;6217139;23;20001;-77
2022/08/31 02:39:28;;;;;;;16.25;14.57;;;;;;;;;;6217318;23;20004;-77
2022/08/31 02:41:54;;;;;;;15.00;13.70;;;;;;;;;;6217286;23;20013;-77
2022/08/31 02:44:20;;;;;;;17.67;15.80;;;;;;;;;;6217309;23;20007;-77
2022/08/31 02:46:46;;;;;;;16.13;14.55;;;;;;;;;;6217130;23;20004;-78
2022/08/31 02:49:13;;;;;;;16.73;14.32;;;;;;;;;;6217243;23;20012;-77
2022/08/31 02:51:40;;;;;;;15.82;14.10;;;;;;;;;;6217381;23;20050;-77
2022/08/31 02:54:06;;;;;;;16.92;15.23;;;;;;;;;;6217181;23;20000;-77
2022/08/31 02:56:32;;;;;;;14.23;12.82;;;;;;;;;;6217231;23;20000;-77
2022/08/31 02:58:58;;;;;;;14.35;12.85;;;;;;;;;;6217327;23;20067;-77
2022/08/31 03:01:28;;;;;;;16.83;15.13;;;;;;;;;;6216095;23;20004;-78
2022/08/31 03:03:54;;;;;;;15.00;13.50;;;;;;;;;;6216674;23;20004;-78
2022/08/31 03:06:21;;;;;;;16.10;14.50;;;;;;;;;;6217187;23;20455;-78
2022/08/31 03:08:47;;;;;;;14.75;13.35;;;;;;;;;;6217420;23;20012;-77
2022/08/31 03:11:14;;;;;;;15.25;13.70;;;;;;;;;;6216841;23;20005;-77
2022/08/31 03:13:40;;;;;;;15.05;13.48;;;;;;;;;;6217567;23;20011;-77
2022/08/31 03:16:07;;;;;;;14.20;12.82;;;;;;;;;;6216877;23;20017;-77
2022/08/31 03:18:33;;;;;;;14.85;13.45;;;;;;;;;;6217178;23;20007;-77
2022/08/31 03:20:59;;;;;;;15.32;13.73;;;;;;;;;;6216813;23;20011;-77
2022/08/31 03:23:25;;;;;;;14.75;13.30;;;;;;;;;;6216861;23;20502;-77
2022/08/31 03:25:52;;;;;;;14.30;12.73;;;;;;;;;;6216993;23;20011;-77
2022/08/31 03:28:18;;;;;;;16.30;14.77;;;;;;;;;;6217316;23;20016;-77
2022/08/31 03:30:44;;;;;;;16.48;14.70;;;;;;;;;;6215987;23;20008;-77
2022/08/31 03:33:10;;;;;;;16.38;14.48;;;;;;;;;;6216776;23;20047;-77
2022/08/31 03:35:36;;;;;;;15.77;14.27;;;;;;;;;;6216913;23;20438;-77
2022/08/31 03:38:04;;;;;;;16.50;14.75;;;;;;;;;;6217160;23;20008;-77
2022/08/31 03:40:30;;;;;;;15.77;14.27;;;;;;;;;;6216960;23;20014;-77
2022/08/31 03:42:57;;;;;;;16.75;14.65;;;;;;;;;;6216723;23;20012;-78
2022/08/31 03:45:24;;;;;;;16.17;14.40;;;;;;;;;;6216878;23;20079;-77
2022/08/31 03:47:50;;;;;;;14.20;12.85;;;;;;;;;;6216848;23;20057;-77
2022/08/31 03:50:16;;;;;;;15.80;14.10;;;;;;;;;;6217173;23;20020;-77
2022/08/31 03:52:42;;;;;;;16.40;14.30;;;;;;;;;;6216635;23;20007;-77
2022/08/31 03:55:09;;;;;;;16.48;14.00;;;;;;;;;;6216656;23;20012;-76
2022/08/31 03:57:36;;;;;;;16.25;14.18;;;;;;;;;;6217008;23;20004;-76
2022/08/31 04:00:03;;;;;;;17.77;14.05;;;;;;;;;;6216774;23;20004;-76
2022/08/31 04:02:30;;;;;;;19.92;17.08;;;;;;;;;;6216031;23;20437;-77
2022/08/31 04:04:56;;;;;;;20.75;15.25;;;;;;;;;;6216386;23;20003;-76
2022/08/31 04:07:22;;;;;;;16.50;14.57;;;;;;;;;;6216694;23;20332;-76
2022/08/31 04:09:49;;;;;;;17.85;14.90;;;;;;;;;;6216648;23;20004;-76
2022/08/31 04:12:17;;;;;;;16.88;15.07;;;;;;;;;;6216643;23;20005;-78
2022/08/31 04:14:44;;;;;;;20.50;14.68;;;;;;;;;;6216374;23;20020;-78
2022/08/31 04:17:10;;;;;;;17.10;14.90;;;;;;;;;;6216263;23;20301;-78
2022/08/31 04:19:37;;;;;;;17.02;14.55;;;;;;;;;;6216157;23;20075;-78
2022/08/31 04:22:03;;;;;;;18.05;15.98;;;;;;;;;;6216569;23;20013;-78
2022/08/31 04:24:30;;;;;;;17.83;15.90;;;;;;;;;;6216350;23;20000;-78
2022/08/31 04:26:56;;;;;;;15.93;14.27;;;;;;;;;;6215838;23;20448;-77
2022/08/31 04:29:22;;;;;;;17.60;15.70;;;;;;;;;;6216511;23;20007;-76
2022/08/31 04:31:48;;;;;;;18.15;16.35;;;;;;;;;;6216387;23;20000;-76
2022/08/31 04:34:15;;;;;;;17.52;15.70;;;;;;;;;;6216268;23;20433;-77
2022/08/31 04:36:44;;;;;;;18.02;16.13;;;;;;;;;;6216501;23;20012;-76
2022/08/31 04:39:10;;;;;;;19.73;16.67;;;;;;;;;;6216668;23;20020;-77
2022/08/31 04:41:38;;;;;;;19.60;15.73;;;;;;;;;;6216153;23;20012;-77
2022/08/31 04:44:05;;;;;;;16.27;14.65;;;;;;;;;;6216334;23;20008;-77
2022/08/31 04:46:32;;;;;;;17.92;16.02;;;;;;;;;;6216170;23;19997;-76
2022/08/31 04:48:58;;;;;;;17.23;15.48;;;;;;;;;;6216128;23;20008;-77
2022/08/31 04:51:29;;;;;;;16.90;15.05;;;;;;;;;;6216161;23;20009;-76
2022/08/31 04:53:56;;;;;;;16.00;14.55;;;;;;;;;;6216073;23;20004;-77
2022/08/31 04:56:23;;;;;;;18.55;15.65;;;;;;;;;;6215517;23;20000;-76
2022/08/31 04:58:52;;;;;;;16.60;15.00;;;;;;;;;;6215982;23;20328;-77
2022/08/31 05:01:20;;;;;;;16.92;14.32;;;;;;;;;;6215856;23;20004;-76
2022/08/31 05:03:51;;;;;;;15.68;13.77;;;;;;;;;;6215898;23;20035;-77
2022/08/31 05:06:18;;;;;;;15.10;13.45;;;;;;;;;;6215453;23;20040;-77
2022/08/31 05:08:45;;;;;;;16.50;14.68;;;;;;;;;;6215148;23;20051;-77
2022/08/31 05:11:17;;;;;;;17.13;15.30;;;;;;;;;;6216107;23;20005;-76
2022/08/31 05:13:44;;;;;;;16.15;14.43;;;;;;;;;;6216211;23;20004;-77
2022/08/31 05:16:10;;;;;;;16.38;14.60;;;;;;;;;;6216152;23;20091;-77
2022/08/31 05:18:37;;;;;;;21.20;15.35;;;;;;;;;;6216037;23;20458;-77
2022/08/31 05:21:14;;;;;;;17.73;15.05;;;;;;;;;;6215769;23;20435;-77
2022/08/31 05:23:40;;;;;;;20.17;16.83;;;;;;;;;;6215673;23;20089;-77
2022/08/31 05:26:07;;;;;;;20.08;18.00;;;;;;;;;;6215795;23;20000;-76
2022/08/31 05:28:34;;;;;;;18.15;15.02;;;;;;;;;;6209758;23;20083;-76
2022/08/31 05:31:00;;;;;;;16.70;14.95;;;;;;;;;;6210293;23;20005;-77
2022/08/31 05:33:28;;;;;;;22.30;16.20;;;;;;;;;;6209892;23;20051;-77
2022/08/31 05:35:54;;;;;;;18.85;16.38;;;;;;;;;;6212263;23;20031;-75
2022/08/31 05:38:21;;;;;;;23.70;21.38;;;;;;;;;;6212677;23;20004;-77
2022/08/31 05:40:54;;;;;;;16.67;14.85;;;;;;;;;;6211726;23;20086;-75
2022/08/31 05:43:20;;;;;;;20.48;18.20;;;;;;;;;;6212248;23;20268;-79
2022/08/31 05:45:46;;;;;;;26.98;24.17;;;;;;;;;;6212228;23;20001;-75
2022/08/31 05:48:12;;;;;;;25.58;22.83;;;;;;;;;;6211251;23;20009;-75
2022/08/31 05:50:38;;;;;;;20.00;15.68;;;;;;;;;;6212056;23;20005;-77
2022/08/31 05:53:05;;;;;;;17.83;15.88;;;;;;;;;;6212881;23;20001;-77
2022/08/31 05:55:31;;;;;;;17.48;15.38;;;;;;;;;;6211852;23;20009;-78
2022/08/31 05:57:57;;;;;;;16.08;14.38;;;;;;;;;;6211840;23;20024;-77
2022/08/31 06:00:24;;;;;;;21.45;16.50;;;;;;;;;;6213156;23;20059;-75
2022/08/31 06:02:50;;;;;;;16.63;14.55;;;;;;;;;;6211765;23;20023;-79
2022/08/31 06:05:17;;;;;;;17.17;15.20;;;;;;;;;;6212122;23;20075;-77
2022/08/31 06:07:44;;;;;;;15.50;13.20;;;;;;;;;;6213075;23;20455;-75
2022/08/31 06:10:10;;;;;;;15.32;13.75;;;;;;;;;;6211810;23;20005;-76
2022/08/31 06:12:37;;;;;;;13.93;12.40;;;;;;;;;;6211718;23;20013;-76
2022/08/31 06:15:04;;;;;;;15.50;13.90;;;;;;;;;;6211138;23;20020;-73
2022/08/31 06:17:34;;;;;;;14.35;12.85;;;;;;;;;;6211703;23;20000;-76
2022/08/31 06:20:00;;;;;;;13.07;11.65;;;;;;;;;;6210277;23;20015;-75
2022/08/31 06:22:28;;;;;;;13.00;11.80;;;;;;;;;;6211737;23;20016;-75
2022/08/31 06:24:54;;;;;;;14.40;12.88;;;;;;;;;;6211886;23;20011;-76
2022/08/31 06:27:20;;;;;;;13.02;11.73;;;;;;;;;;6212923;23;20008;-77
2022/08/31 06:29:48;;;;;;;14.18;12.75;;;;;;;;;;6211600;23;20381;-75
2022/08/31 06:32:14;;;;;;;13.00;11.63;;;;;;;;;;6212434;23;20028;-76
2022/08/31 06:34:41;;;;;;;14.40;12.98;;;;;;;;;;6212344;23;20008;-76
2022/08/31 06:37:08;;;;;;;15.98;12.80;;;;;;;;;;6211857;23;20076;-77
2022/08/31 06:39:34;;;;;;;13.10;11.63;;;;;;;;;;6212690;23;20127;-78
2022/08/31 06:42:02;;;;;;;14.15;12.65;;;;;;;;;;6213239;23;20013;-77
2022/08/31 06:44:28;;;;;;;14.52;12.23;;;;;;;;;;6213372;23;20015;-78
2022/08/31 06:46:55;;;;;;;14.05;11.73;;;;;;;;;;6213661;23;20013;-78
2022/08/31 06:49:21;;;;;;;14.20;12.88;;;;;;;;;;6213724;23;20004;-78
2022/08/31 06:51:48;;;;;;;13.32;11.95;;;;;;;;;;6212890;23;20005;-77
2022/08/31 06:54:15;;;;;;;14.50;12.35;;;;;;;;;;6214088;23;20024;-78
2022/08/31 06:56:42;;;;;;;16.50;14.85;;;;;;;;;;6212305;23;20032;-79
2022/08/31 06:59:08;;;;;;;20.60;18.50;;;;;;;;;;6211002;23;20072;-76
2022/08/31 07:01:35;;;;;;;16.75;15.02;;;;;;;;;;6212933;23;20139;-76
2022/08/31 07:04:03;;;;;;;17.42;15.68;;;;;;;;;;6213141;23;20080;-75
2022/08/31 07:06:30;;;;;;;19.30;17.40;;;;;;;;;;6211195;23;20009;-75
2022/08/31 07:08:59;;;;;;;16.85;15.25;;;;;;;;;;6212789;23;20008;-76
2022/08/31 07:11:27;;;;;;;16.67;14.85;;;;;;;;;;6212956;23;20008;-75
2022/08/31 07:13:54;;;;;;;16.35;14.65;;;;;;;;;;6211611;23;20313;-74
2022/08/31 07:16:22;;;;;;;15.52;14.13;;;;;;;;;;6214194;23;20012;-73
2022/08/31 07:18:48;;;;;;;16.52;14.82;;;;;;;;;;6213399;23;20004;-74
2022/08/31 07:21:16;;;;;;;17.67;15.95;;;;;;;;;;6212709;23;20001;-74
2022/08/31 07:23:43;;;;;;;17.58;15.98;;;;;;;;;;6213517;23;20477;-75
2022/08/31 07:26:11;;;;;;;17.00;15.40;;;;;;;;;;6213711;23;20035;-73
2022/08/31 07:28:38;;;;;;;17.25;15.55;;;;;;;;;;6211972;23;20436;-74
2022/08/31 07:31:05;;;;;;;18.50;16.70;;;;;;;;;;6214128;23;20336;-77
2022/08/31 07:33:36;;;;;;;18.88;16.98;;;;;;;;;;6213886;23;20515;-77
2022/08/31 07:36:04;;;;;;;19.50;17.50;;;;;;;;;;6213589;23;20050;-76
2022/08/31 07:44:00;;;;;;;17.67;15.85;;;;;;;;;;6214166;23;20094;-76
2022/08/31 07:46:30;;;;;;;17.15;15.45;;;;;;;;;;6213607;23;20031;-76
2022/08/31 07:48:56;;;;;;;19.75;17.55;;;;;;;;;;6213400;23;20004;-76
2022/08/31 07:51:26;;;;;;;17.60;15.80;;;;;;;;;;6214149;23;20007;-77
2022/08/31 07:53:53;;;;;;;18.50;16.70;;;;;;;;;;6213516;23;20004;-76
2022/08/31 07:56:20;;;;;;;18.58;16.88;;;;;;;;;;6213268;23;20036;-77
2022/08/31 08:01:31;;;;;;;20.63;18.60;;;;;;;;;;6213171;23;20019;-76
2022/08/31 08:04:00;;;;;;;17.73;15.90;;;;;;;;;;6213588;23;20459;-75
2022/08/31 08:06:27;;;;;;;18.95;16.98;;;;;;;;;;6214110;23;20436;-75
2022/08/31 08:08:54;;;;;;;21.10;19.00;;;;;;;;;;6213300;23;20007;-75
2022/08/31 08:11:21;;;;;;;23.08;20.70;;;;;;;;;;6213734;23;20054;-75
2022/08/31 08:13:47;;;;;;;19.25;17.35;;;;;;;;;;6213217;23;20069;-75
2022/08/31 08:16:14;;;;;;;18.70;16.77;;;;;;;;;;6213307;23;20424;-76
2022/08/31 08:18:40;;;;;;;19.67;17.45;;;;;;;;;;6213204;23;20050;-77
2022/08/31 08:21:07;;;;;;;18.33;16.48;;;;;;;;;;6212758;23;20471;-76
2022/08/31 08:23:33;;;;;;;19.13;17.33;;;;;;;;;;6213252;23;20031;-77
2022/08/31 08:26:00;;;;;;;19.48;17.48;;;;;;;;;;6187463;23;20083;-76
2022/08/31 08:28:30;;;;;;;23.23;20.40;;;;;;;;;;6187671;23;20079;-76
2022/08/31 08:31:00;;;;;;;18.40;16.70;;;;;;;;;;6212635;23;20383;-77
2022/08/31 08:33:27;;;;;;;18.33;16.73;;;;;;;;;;6212706;23;19993;-77
2022/08/31 08:35:55;;;;;;;19.10;17.38;;;;;;;;;;6213538;23;20009;-76
2022/08/31 08:38:22;;;;;;;19.27;17.38;;;;;;;;;;6213149;23;20091;-77
2022/08/31 08:40:50;;;;;;;19.42;17.52;;;;;;;;;;6212871;23;20032;-75
2022/08/31 08:43:17;;;;;;;18.65;17.05;;;;;;;;;;6210762;23;20432;-75
2022/08/31 08:45:50;;;;;;;18.70;16.90;;;;;;;;;;6213260;23;20051;-74
2022/08/31 08:48:19;;;;;;;18.83;17.02;;;;;;;;;;6214025;23;20080;-76
2022/08/31 08:50:45;;;;;;;18.02;16.13;;;;;;;;;;6213828;23;20055;-75
2022/08/31 08:53:14;;;;;;;21.05;17.00;;;;;;;;;;6212243;23;20008;-76
2022/08/31 08:55:41;;;;;;;18.17;16.48;;;;;;;;;;6186606;23;20317;-76
2022/08/31 08:58:11;;;;;;;19.45;17.50;;;;;;;;;;6210068;23;20004;-75
2022/08/31 09:00:37;;;;;;;17.80;16.02;;;;;;;;;;6213224;23;20216;-75
2022/08/31 09:03:16;;;;;;;18.77;17.08;;;;;;;;;;6186892;23;20352;-77
2022/08/31 09:05:42;;;;;;;17.77;16.08;;;;;;;;;;6213431;23;20385;-76
2022/08/31 09:08:22;;;;;;;19.35;17.25;;;;;;;;;;6212489;23;20026;-76
2022/08/31 09:10:51;;;;;;;17.85;16.15;;;;;;;;;;6213619;23;20325;-76
2022/08/31 09:13:24;;;;;;;19.48;17.67;;;;;;;;;;6213043;23;20000;-75
2022/08/31 09:16:02;;;;;;;18.13;16.63;;;;;;;;;;6213261;23;20033;-76
2022/08/31 09:18:31;;;;;;;17.35;15.60;;;;;;;;;;6211169;23;20059;-76
2022/08/31 09:21:02;;;;;;;16.77;15.18;;;;;;;;;;6182448;23;20011;-76
2022/08/31 09:23:29;;;;;;;17.02;15.43;;;;;;;;;;6213453;23;20091;-77
2022/08/31 09:25:57;;;;;;;17.80;16.00;;;;;;;;;;6212645;23;20435;-79
2022/08/31 09:28:37;;;;;;;16.92;15.43;;;;;;;;;;6187026;23;20118;-77
2022/08/31 09:31:04;;;;;;;16.60;14.95;;;;;;;;;;6213700;23;20027;-77
2022/08/31 09:33:34;;;;;;;17.17;15.48;;;;;;;;;;6212148;23;20123;-76
2022/08/31 09:36:20;;;;;;;15.75;14.27;;;;;;;;;;6212269;23;19997;-77
2022/08/31 09:38:47;;;;;;;15.57;14.07;;;;;;;;;;6210641;23;20062;-77
2022/08/31 09:41:30;;;;;;;17.05;15.35;;;;;;;;;;6212813;23;20452;-77
2022/08/31 09:44:16;;;;;;;16.83;15.23;;;;;;;;;;6212259;23;20589;-76
2022/08/31 09:46:47;;;;;;;16.15;14.45;;;;;;;;;;6212277;23;20007;-76
2022/08/31 09:49:32;;;;;;;15.05;13.60;;;;;;;;;;6212384;23;20067;-77
2022/08/31 09:52:17;;;;;;;15.00;13.50;;;;;;;;;;6212352;23;20001;-76
2022/08/31 09:57:52;;;;;;;17.73;15.48;;;;;;;;;;6212819;23;20027;-75
2022/08/31 10:00:31;;;;;;;14.55;13.02;;;;;;;;;;6211954;23;20417;-76
2022/08/31 10:03:07;;;;;;;13.70;12.38;;;;;;;;;;6211702;23;20013;-76
2022/08/31 10:05:39;;;;;;;14.23;12.82;;;;;;;;;;6211691;23;20023;-76
2022/08/31 10:08:19;;;;;;;15.43;13.57;;;;;;;;;;6211891;23;20476;-75
2022/08/31 10:10:47;;;;;;;15.00;13.70;;;;;;;;;;6212733;23;20008;-75
2022/08/31 10:13:20;;;;;;;13.32;12.13;;;;;;;;;;6212847;23;20005;-68
2022/08/31 10:16:05;;;;;;;13.80;12.47;;;;;;;;;;6213986;23;20024;-76
2022/08/31 10:18:42;;;;;;;13.48;12.18;;;;;;;;;;6187596;23;20385;-76
2022/08/31 10:21:25;;;;;;;13.10;11.88;;;;;;;;;;6214260;23;20033;-78
2022/08/31 10:24:19;;;;;;;14.27;12.82;;;;;;;;;;6214841;23;20059;-77
2022/08/31 10:26:49;;;;;;;14.77;13.38;;;;;;;;;;6174722;23;20008;-75
2022/08/31 10:29:31;;;;;;;15.07;13.48;;;;;;;;;;6213765;23;20008;-76
2022/08/31 10:31:59;;;;;;;15.38;14.07;;;;;;;;;;6214546;23;20437;-76
2022/08/31 10:37:36;;;;;;;14.65;13.30;;;;;;;;;;6214691;23;20028;-77
2022/08/31 10:40:21;;;;;;;13.85;12.55;;;;;;;;;;6214870;23;20433;-76
2022/08/31 10:42:58;;;;;;;15.25;13.63;;;;;;;;;;6214328;23;20060;-78
2022/08/31 10:45:25;;;;;;;17.88;14.55;;;;;;;;;;6213834;23;20650;-77
2022/08/31 10:47:53;;;;;;;14.80;13.20;;;;;;;;;;6214679;23;20004;-75
2022/08/31 10:50:38;;;;;;;15.02;13.52;;;;;;;;;;6214525;23;20009;-75
2022/08/31 10:53:20;;;;;;;15.43;13.93;;;;;;;;;;6214495;23;20008;-76
2022/08/31 10:55:52;;;;;;;16.02;14.70;;;;;;;;;;6214970;23;20102;-77
2022/08/31 10:58:32;;;;;;;15.25;13.85;;;;;;;;;;6214005;23;20031;-77
2022/08/31 11:01:18;;;;;;;17.50;15.63;;;;;;;;;;6213941;23;20365;-75
2022/08/31 11:04:06;;;;;;;16.83;15.13;;;;;;;;;;6152670;23;20510;-76
2022/08/31 11:06:41;;;;;;;15.32;13.68;;;;;;;;;;6194934;23;20016;-76
2022/08/31 11:09:18;;;;;;;14.98;13.50;;;;;;;;;;6186534;23;20004;-77
2022/08/31 11:11:56;;;;;;;14.57;13.02;;;;;;;;;;6213934;23;20008;-77
2022/08/31 11:14:22;;;;;;;16.88;14.85;;;;;;;;;;6213293;23;20027;-76
2022/08/31 11:17:14;;;;;;;15.77;14.45;;;;;;;;;;6187064;23;20011;-76
2022/08/31 11:19:56;;;;;;;20.35;18.40;;;;;;;;;;6168495;23;20012;-76
2022/08/31 11:22:41;;;;;;;16.45;14.95;;;;;;;;;;6186501;23;20321;-76
2022/08/31 11:25:07;;;;;;;17.67;16.02;;;;;;;;;;6212995;23;20027;-77
2022/08/31 11:27:36;;;;;;;21.75;17.08;;;;;;;;;;6213568;23;20035;-77
2022/08/31 11:30:06;;;;;;;36.60;26.88;;;;;;;;;;6213088;23;20005;-77
2022/08/31 11:32:44;;;;;;;21.60;19.65;;;;;;;;;;6213466;23;20425;-77
2022/08/31 11:35:11;;;;;;;17.20;15.43;;;;;;;;;;6212327;23;20112;-77
2022/08/31 11:37:56;;;;;;;16.13;14.45;;;;;;;;;;6212838;23;20369;-76
2022/08/31 11:40:40;;;;;;;16.55;14.82;;;;;;;;;;6211921;23;20011;-77
2022/08/31 11:43:06;;;;;;;16.33;14.85;;;;;;;;;;6213541;23;20394;-76
2022/08/31 11:45:36;;;;;;;17.30;15.60;;;;;;;;;;6214514;23;20020;-79
2022/08/31 11:48:04;;;;;;;17.80;16.17;;;;;;;;;;6215066;23;20126;-76
2022/08/31 11:50:36;;;;;;;20.02;16.60;;;;;;;;;;6215383;23;20444;-76
2022/08/31 11:53:24;;;;;;;18.77;16.90;;;;;;;;;;6214949;23;19996;-77
2022/08/31 11:55:51;;;;;;;16.88;15.07;;;;;;;;;;6214815;23;20004;-71
2022/08/31 11:58:24;;;;;;;22.65;18.80;;;;;;;;;;6214807;23;20011;-76
2022/08/31 12:01:09;;;;;;;17.25;15.45;;;;;;;;;;6215314;23;20447;-77
2022/08/31 12:03:38;;;;;;;16.83;15.32;;;;;;;;;;6214814;23;20008;-76
2022/08/31 12:06:07;;;;;;;15.63;14.30;;;;;;;;;;6214850;23;20003;-76
2022/08/31 12:08:45;;;;;;;17.45;15.68;;;;;;;;;;6188294;23;20011;-75
2022/08/31 12:11:11;;;;;;;18.35;16.60;;;;;;;;;;6214820;23;20000;-75
2022/08/31 12:14:00;;;;;;;15.52;14.10;;;;;;;;;;6214357;23;20476;-75
2022/08/31 12:16:46;;;;;;;16.73;14.93;;;;;;;;;;6213827;23;20096;-77
2022/08/31 12:25:34;;;;;;;14.75;13.45;;;;;;;;;;6213942;23;20361;-76
2022/08/31 12:28:05;;;;;;;19.70;17.63;;;;;;;;;;6212420;23;20343;-78
2022/08/31 12:30:31;;;;;;;25.63;19.33;;;;;;;;;;6214156;23;20004;-77
2022/08/31 12:33:03;;;;;;;15.18;13.60;;;;;;;;;;6214894;23;20001;-76
2022/08/31 12:35:31;;;;;;;16.15;14.48;;;;;;;;;;6213319;23;20088;-76
2022/08/31 12:38:08;;;;;;;15.35;13.88;;;;;;;;;;6214510;23;20000;-76
2022/08/31 12:40:34;;;;;;;16.58;15.02;;;;;;;;;;6214879;23;20441;-75
2022/08/31 12:43:03;;;;;;;17.70;16.02;;;;;;;;;;6214674;23;20080;-75
2022/08/31 12:45:48;;;;;;;17.10;15.50;;;;;;;;;;6215321;23;20000;-76
2022/08/31 12:48:14;;;;;;;14.75;13.27;;;;;;;;;;6214864;23;20447;-78
2022/08/31 12:50:46;;;;;;;15.57;14.15;;;;;;;;;;6212471;23;19997;-81
2022/08/31 12:53:26;;;;;;;23.25;20.98;;;;;;;;;;6212552;23;20080;-78
2022/08/31 12:55:58;;;;;;;18.90;17.08;;;;;;;;;;6214104;23;20332;-78
2022/08/31 12:58:32;;;;;;;15.90;14.32;;;;;;;;;;6213000;23;20015;-78
2022/08/31 13:00:58;;;;;;;;;;;;;;;;;;6214977;23;20004;-75
2022/08/31 13:03:26;;;;;;;15.90;14.40;;;;;;;;;;6214652;23;19908;-79
2022/08/31 13:06:12;;;;;;;16.23;14.73;;;;;;;;;;6214494;23;20005;-77
2022/08/31 13:08:38;;;;;;;15.43;13.75;;;;;;;;;;6214894;23;20024;-77
2022/08/31 13:14:23;;;;;;;16.08;14.38;;;;;;;;;;6163739;23;20470;-78
2022/08/31 13:16:49;;;;;;;15.23;13.68;;;;;;;;;;6214343;23;20440;-78
2022/08/31 13:19:25;;;;;;;14.70;13.20;;;;;;;;;;6213927;23;20062;-79
2022/08/31 13:21:53;;;;;;;15.25;13.85;;;;;;;;;;6212472;23;20008;-79
2022/08/31 13:24:25;;;;;;;18.23;15.07;;;;;;;;;;6213059;23;20004;-77
2022/08/31 13:27:10;;;;;;;17.35;14.70;;;;;;;;;;6212836;23;20096;-76
2022/08/31 13:29:42;;;;;;;15.48;14.00;;;;;;;;;;6212001;23;20381;-77
2022/08/31 13:32:09;;;;;;;16.80;15.10;;;;;;;;;;6212480;23;20008;-77
2022/08/31 13:34:40;;;;;;;15.82;14.15;;;;;;;;;;6211869;23;20043;-77
2022/08/31 13:37:10;;;;;;;15.38;13.82;;;;;;;;;;6212037;23;20333;-77
2022/08/31 13:39:43;;;;;;;19.55;17.60;;;;;;;;;;6212461;23;20059;-76
2022/08/31 13:42:09;;;;;;;18.75;16.23;;;;;;;;;;6212171;23;20017;-76
2022/08/31 13:44:42;;;;;;;20.50;15.15;;;;;;;;;;6212586;23;20039;-77
2022/08/31 13:47:26;;;;;;;16.77;15.02;;;;;;;;;;6212211;23;20009;-76
2022/08/31 13:50:12;;;;;;;15.27;12.18;;;;;;;;;;6210204;23;20504;-75
2022/08/31 13:52:52;;;;;;;14.73;13.40;;;;;;;;;;6212682;23;20056;-76
2022/08/31 13:55:36;;;;;;;14.35;12.95;;;;;;;;;;6213059;23;20596;-77
2022/08/31 13:58:04;;;;;;;15.00;13.60;;;;;;;;;;6212697;23;20309;-76
2022/08/31 14:00:39;;;;;;;15.25;13.75;;;;;;;;;;6213268;23;20064;-75
2022/08/31 14:03:27;;;;;;;15.85;14.30;;;;;;;;;;6212431;23;20335;-76
2022/08/31 14:05:54;;;;;;;16.48;13.95;;;;;;;;;;6213082;23;20527;-76
2022/08/31 14:08:23;;;;;;;14.90;13.43;;;;;;;;;;6213583;23;20063;-77
2022/08/31 14:10:49;;;;;;;13.05;11.70;;;;;;;;;;6212531;23;20329;-76
2022/08/31 14:13:18;;;;;;;28.23;13.75;;;;;;;;;;6213254;23;20004;-76
2022/08/31 14:15:55;;;;;;;28.88;26.00;;;;;;;;;;6212805;23;20021;-76
2022/08/31 14:18:27;;;;;;;16.98;13.15;;;;;;;;;;6212887;23;20000;-76
2022/08/31 14:21:19;;;;;;;15.13;13.45;;;;;;;;;;6214567;23;20075;-76
2022/08/31 14:23:50;;;;;;;13.88;12.48;;;;;;;;;;6209287;23;20008;-75
2022/08/31 14:26:21;;;;;;;14.00;12.55;;;;;;;;;;6187369;23;20004;-76
2022/08/31 14:28:52;;;;;;;13.98;12.68;;;;;;;;;;6214262;23;20007;-76
2022/08/31 14:31:36;;;;;;;14.63;12.43;;;;;;;;;;6214738;23;20040;-76
2022/08/31 14:34:18;;;;;;;13.43;12.13;;;;;;;;;;6213485;23;20428;-77
2022/08/31 14:36:51;;;;;;;13.98;12.55;;;;;;;;;;6214391;23;20012;-76
2022/08/31 14:39:41;;;;;;;12.13;10.95;;;;;;;;;;6214360;23;20015;-77
2022/08/31 14:42:08;;;;;;;15.23;11.60;;;;;;;;;;6199032;23;20132;-75
2022/08/31 14:44:39;;;;;;;14.65;13.02;;;;;;;;;;6187573;23;20001;-75
2022/08/31 14:47:08;;;;;;;16.00;14.07;;;;;;;;;;6213147;23;20000;-75
2022/08/31 14:49:34;;;;;;;14.75;13.25;;;;;;;;;;6213608;23;19997;-76
2022/08/31 14:52:05;;;;;;;15.00;13.52;;;;;;;;;;6213433;23;20024;-75
2022/08/31 14:54:34;;;;;;;15.00;13.48;;;;;;;;;;6213939;23;20009;-75
2022/08/31 14:57:05;;;;;;;17.80;13.18;;;;;;;;;;6213390;23;20089;-76
2022/08/31 14:59:31;;;;;;;11.95;10.70;;;;;;;;;;6214103;23;20005;-76
2022/08/31 15:01:57;;;;;;;11.13;9.77;;;;;;;;;;6215103;23;20087;-76